createdAt,value
2023-02-27T00:00:53.158Z,4.85
2023-02-27T00:03:20.108Z,5.14
2023-02-27T00:05:46.826Z,5.68
2023-02-27T00:08:13.614Z,6.14
2023-02-27T00:10:40.401Z,5.75
2023-02-27T00:13:07.228Z,5.79
2023-02-27T00:15:34.131Z,5.69
2023-02-27T00:18:01.111Z,6.45
2023-02-27T00:20:28.663Z,5.37
2023-02-27T00:22:55.168Z,5.39
2023-02-27T00:25:21.752Z,5.63
2023-02-27T00:27:48.455Z,6.16
2023-02-27T00:30:15.715Z,6.10
2023-02-27T00:32:42.666Z,5.64
2023-02-27T00:35:10.334Z,6.24
2023-02-27T00:37:37.296Z,5.85
2023-02-27T00:40:05.330Z,5.91
2023-02-27T00:42:32.241Z,5.92
2023-02-27T00:44:58.848Z,5.57
2023-02-27T00:47:25.276Z,5.53
2023-02-27T00:49:51.840Z,5.94
2023-02-27T00:52:18.223Z,5.81
2023-02-27T00:54:45.058Z,6.14
2023-02-27T00:57:11.721Z,5.94
2023-02-27T00:59:38.259Z,4.93
2023-02-27T01:02:05.267Z,5.20
2023-02-27T01:04:31.769Z,5.29
2023-02-27T01:06:58.251Z,4.83
2023-02-27T01:09:25.000Z,4.39
2023-02-27T01:11:51.861Z,5.62
2023-02-27T01:14:18.380Z,6.05
2023-02-27T01:16:44.811Z,6.08
2023-02-27T01:19:11.446Z,6.16
2023-02-27T01:21:38.143Z,6.21
2023-02-27T01:24:04.788Z,5.89
2023-02-27T01:26:31.302Z,5.82
2023-02-27T01:28:57.768Z,5.69
2023-02-27T01:31:26.054Z,5.43
2023-02-27T01:33:53.689Z,5.48
2023-02-27T01:36:20.772Z,5.24
2023-02-27T01:38:47.596Z,5.12
2023-02-27T01:41:14.320Z,5.24
2023-02-27T01:43:57.725Z,4.93
2023-02-27T01:46:24.645Z,4.84
2023-02-27T01:48:54.398Z,4.81
2023-02-27T01:51:21.595Z,4.76
2023-02-27T01:53:49.286Z,4.78
2023-02-27T01:56:20.655Z,4.73
2023-02-27T01:58:48.842Z,4.70
2023-02-27T02:01:16.242Z,4.83
2023-02-27T02:03:45.765Z,4.81
2023-02-27T02:06:12.793Z,4.69
2023-02-27T02:08:42.033Z,4.69
2023-02-27T02:11:09.215Z,4.82
2023-02-27T02:13:37.158Z,4.75
2023-02-27T02:16:18.881Z,4.68
2023-02-27T02:18:51.496Z,4.37
2023-02-27T02:21:24.362Z,4.32
2023-02-27T02:23:57.401Z,4.39
2023-02-27T02:26:39.248Z,4.45
2023-02-27T02:29:09.648Z,4.41
2023-02-27T02:31:54.546Z,4.43
2023-02-27T02:34:33.201Z,3.93
2023-02-27T02:37:18.418Z,4.24
2023-02-27T02:39:58.815Z,4.20
2023-02-27T02:42:27.219Z,4.36
2023-02-27T02:45:05.773Z,4.32
2023-02-27T02:47:35.712Z,4.43
2023-02-27T02:50:20.904Z,4.31
2023-02-27T02:53:06.016Z,4.18
2023-02-27T02:55:34.748Z,3.97
2023-02-27T02:58:20.102Z,3.71
2023-02-27T03:00:56.756Z,3.85
2023-02-27T03:03:28.480Z,3.73
2023-02-27T03:05:57.977Z,4.04
2023-02-27T03:08:30.824Z,3.87
2023-02-27T03:11:03.763Z,4.14
2023-02-27T03:13:37.484Z,4.26
2023-02-27T03:16:07.029Z,3.53
2023-02-27T03:18:56.791Z,3.14
2023-02-27T03:21:37.700Z,2.91
2023-02-27T03:24:07.195Z,3.57
2023-02-27T03:26:35.247Z,4.05
2023-02-27T03:29:04.361Z,4.34
2023-02-27T03:31:38.495Z,4.14
2023-02-27T03:34:31.501Z,4.22
2023-02-27T03:36:58.398Z,3.57
2023-02-27T03:39:25.092Z,3.76
2023-02-27T03:42:11.893Z,3.77
2023-02-27T03:44:52.354Z,4.17
2023-02-27T03:47:19.841Z,4.16
2023-02-27T03:49:46.548Z,4.18
2023-02-27T03:52:14.059Z,4.23
2023-02-27T03:54:45.413Z,4.15
2023-02-27T03:57:15.145Z,4.10
2023-02-27T03:59:42.458Z,4.12
2023-02-27T04:02:09.440Z,3.95
2023-02-27T04:04:35.991Z,3.84
2023-02-27T04:07:23.881Z,3.86
2023-02-27T04:09:50.474Z,3.88
2023-02-27T04:12:16.883Z,4.26
2023-02-27T04:14:50.790Z,4.14
2023-02-27T04:17:21.829Z,4.21
2023-02-27T04:19:59.811Z,4.09
2023-02-27T04:22:27.486Z,4.06
2023-02-27T04:25:03.216Z,4.02
2023-02-27T04:27:39.164Z,4.02
2023-02-27T04:30:14.825Z,3.96
2023-02-27T04:32:47.478Z,4.14
2023-02-27T04:35:34.619Z,4.01
2023-02-27T04:38:04.343Z,3.56
2023-02-27T04:40:38.338Z,3.61
2023-02-27T04:43:07.580Z,3.83
2023-02-27T04:45:35.632Z,3.70
2023-02-27T04:48:05.854Z,3.69
2023-02-27T04:50:45.469Z,3.86
2023-02-27T04:53:18.301Z,3.82
2023-02-27T04:55:50.195Z,3.80
2023-02-27T04:58:32.263Z,3.84
2023-02-27T05:01:01.808Z,3.61
2023-02-27T05:03:32.882Z,3.48
2023-02-27T05:06:00.984Z,3.34
2023-02-27T05:08:48.853Z,3.47
2023-02-27T05:11:18.289Z,3.70
2023-02-27T05:13:47.761Z,3.49
2023-02-27T05:16:19.785Z,3.43
2023-02-27T05:18:46.900Z,3.64
2023-02-27T05:21:33.619Z,3.54
2023-02-27T05:24:12.456Z,3.59
2023-02-27T05:27:06.514Z,3.36
2023-02-27T05:29:56.295Z,3.34
2023-02-27T05:32:30.970Z,3.09
2023-02-27T05:34:58.488Z,3.07
2023-02-27T05:37:34.093Z,3.32
2023-02-27T05:40:09.101Z,3.47
2023-02-27T05:42:43.712Z,3.41
2023-02-27T05:45:15.184Z,3.60
2023-02-27T05:47:44.966Z,3.42
2023-02-27T05:50:19.875Z,3.07
2023-02-27T05:52:49.633Z,3.03
2023-02-27T05:55:22.726Z,3.12
2023-02-27T05:57:54.163Z,3.11
2023-02-27T06:00:37.053Z,3.27
2023-02-27T06:03:03.778Z,3.26
2023-02-27T06:05:30.492Z,3.08
2023-02-27T06:07:57.905Z,3.14
2023-02-27T06:10:24.980Z,3.00
2023-02-27T06:12:51.643Z,2.92
2023-02-27T06:15:20.076Z,3.01
2023-02-27T06:17:46.657Z,2.99
2023-02-27T06:20:13.106Z,3.06
2023-02-27T06:22:40.206Z,2.94
2023-02-27T06:25:07.054Z,3.14
2023-02-27T06:27:33.585Z,2.98
2023-02-27T06:30:00.108Z,3.01
2023-02-27T06:32:26.639Z,3.19
2023-02-27T06:34:53.498Z,3.21
2023-02-27T06:37:21.719Z,3.20
2023-02-27T06:39:48.304Z,3.16
2023-02-27T06:42:15.212Z,3.28
2023-02-27T06:44:42.614Z,3.36
2023-02-27T06:47:09.417Z,3.48
2023-02-27T06:49:35.959Z,3.51
2023-02-27T06:52:02.412Z,3.45
2023-02-27T06:54:29.338Z,3.40
2023-02-27T06:56:56.522Z,3.56
2023-02-27T06:59:22.946Z,3.87
2023-02-27T07:01:49.750Z,3.91
2023-02-27T07:04:16.629Z,3.77
2023-02-27T07:07:35.711Z,4.09
2023-02-27T07:09:30.476Z,4.46
2023-02-27T07:11:57.060Z,4.19
2023-02-27T07:14:23.390Z,3.89
2023-02-27T07:16:53.951Z,3.72
2023-02-27T07:19:24.441Z,4.00
2023-02-27T07:21:50.994Z,3.91
2023-02-27T07:24:17.600Z,4.20
2023-02-27T07:26:43.962Z,3.77
2023-02-27T07:29:10.437Z,3.64
2023-02-27T07:31:36.923Z,3.31
2023-02-27T07:34:03.754Z,3.36
2023-02-27T07:36:33.492Z,3.53
2023-02-27T07:39:00.006Z,4.11
2023-02-27T07:41:30.619Z,4.45
2023-02-27T07:43:57.870Z,4.20
2023-02-27T07:46:27.822Z,4.18
2023-02-27T07:48:54.827Z,4.08
2023-02-27T07:51:21.974Z,4.65
2023-02-27T07:53:48.655Z,4.91
2023-02-27T07:56:15.711Z,4.81
2023-02-27T07:58:42.191Z,5.60
2023-02-27T08:01:08.729Z,6.15
2023-02-27T08:03:35.338Z,6.08
2023-02-27T08:06:02.422Z,5.18
2023-02-27T08:08:29.589Z,5.18
2023-02-27T08:10:56.372Z,5.25
2023-02-27T08:13:35.972Z,4.96
2023-02-27T08:16:09.619Z,5.73
2023-02-27T08:18:36.114Z,7.15
2023-02-27T08:21:04.908Z,8.03
2023-02-27T08:23:34.469Z,8.16
2023-02-27T08:26:01.759Z,7.91
2023-02-27T08:28:28.413Z,7.97
2023-02-27T08:30:55.649Z,7.78
2023-02-27T08:33:22.708Z,6.84
2023-02-27T08:35:49.244Z,7.92
2023-02-27T08:38:15.967Z,8.10
2023-02-27T08:40:43.623Z,8.13
2023-02-27T08:43:10.177Z,7.85
2023-02-27T08:45:37.097Z,7.71
2023-02-27T08:48:03.723Z,7.61
2023-02-27T08:50:30.418Z,7.51
2023-02-27T08:52:57.074Z,6.88
2023-02-27T08:55:23.682Z,6.90
2023-02-27T08:57:50.141Z,6.60
2023-02-27T09:00:18.083Z,7.43
2023-02-27T09:02:44.720Z,7.83
2023-02-27T09:05:11.443Z,8.19
2023-02-27T09:07:38.129Z,8.67
2023-02-27T09:10:07.239Z,9.24
2023-02-27T09:12:33.733Z,9.45
2023-02-27T09:15:00.298Z,8.79
2023-02-27T09:17:27.028Z,8.75
2023-02-27T09:19:55.899Z,8.22
2023-02-27T09:22:23.770Z,8.70
2023-02-27T09:24:51.187Z,9.62
2023-02-27T09:27:17.850Z,10.54
2023-02-27T09:29:44.649Z,8.92
2023-02-27T09:32:11.484Z,9.41
2023-02-27T09:34:39.286Z,9.26
2023-02-27T09:37:05.731Z,10.11
2023-02-27T09:39:32.485Z,8.78
2023-02-27T09:42:07.621Z,9.49
2023-02-27T09:44:47.696Z,8.98
2023-02-27T09:47:16.907Z,8.90
2023-02-27T09:49:57.557Z,9.38
2023-02-27T09:52:24.230Z,10.37
2023-02-27T09:54:51.190Z,11.14
2023-02-27T09:57:23.668Z,10.18
2023-02-27T10:00:16.582Z,10.04
2023-02-27T10:03:02.052Z,10.21
2023-02-27T10:05:35.641Z,9.35
2023-02-27T10:08:06.875Z,8.40
2023-02-27T10:10:46.206Z,8.67
2023-02-27T10:13:31.520Z,9.31
2023-02-27T10:15:59.956Z,10.23
2023-02-27T10:18:46.820Z,10.21
2023-02-27T10:21:16.092Z,9.18
2023-02-27T10:23:46.600Z,8.44
2023-02-27T10:26:21.643Z,10.32
2023-02-27T10:28:48.540Z,9.97
2023-02-27T10:31:22.656Z,9.33
2023-02-27T10:33:51.870Z,9.02
2023-02-27T10:36:32.515Z,10.91
2023-02-27T10:39:02.905Z,10.52
2023-02-27T10:41:30.693Z,10.73
2023-02-27T10:43:58.958Z,10.81
2023-02-27T10:46:27.677Z,11.52
2023-02-27T10:48:54.812Z,10.19
2023-02-27T10:51:31.806Z,9.56
2023-02-27T10:54:17.303Z,9.73
2023-02-27T10:56:55.959Z,9.61
2023-02-27T10:59:40.467Z,9.44
2023-02-27T11:02:21.684Z,9.80
2023-02-27T11:04:55.108Z,9.11
2023-02-27T11:07:32.777Z,9.24
2023-02-27T11:10:01.173Z,9.09
2023-02-27T11:12:29.535Z,8.99
2023-02-27T11:14:57.407Z,9.17
2023-02-27T11:17:32.821Z,9.76
2023-02-27T11:20:01.334Z,10.60
2023-02-27T11:22:29.739Z,9.36
2023-02-27T11:25:17.136Z,9.28
2023-02-27T11:27:46.024Z,9.46
2023-02-27T11:30:31.784Z,10.09
2023-02-27T11:33:01.078Z,10.18
2023-02-27T11:35:33.152Z,9.29
2023-02-27T11:38:07.785Z,10.36
2023-02-27T11:40:37.224Z,9.64
2023-02-27T11:43:05.965Z,10.34
2023-02-27T11:46:05.022Z,10.28
2023-02-27T11:48:31.065Z,9.66
2023-02-27T11:51:09.658Z,10.10
2023-02-27T11:53:48.492Z,10.16
2023-02-27T11:56:17.621Z,9.89
2023-02-27T11:58:52.399Z,10.61
2023-02-27T12:01:25.454Z,9.82
2023-02-27T12:04:01.743Z,10.12
2023-02-27T12:06:43.659Z,10.53
2023-02-27T12:09:21.900Z,10.22
2023-02-27T12:11:50.102Z,9.67
2023-02-27T12:14:33.248Z,10.95
2023-02-27T12:17:04.779Z,10.14
2023-02-27T12:19:38.517Z,10.76
2023-02-27T12:22:09.632Z,10.85
2023-02-27T12:24:36.267Z,10.47
2023-02-27T12:27:13.868Z,10.01
2023-02-27T12:29:43.887Z,11.49
2023-02-27T12:32:26.081Z,10.30
2023-02-27T12:35:15.799Z,10.37
2023-02-27T12:37:42.601Z,10.29
2023-02-27T12:40:14.761Z,11.05
2023-02-27T12:42:59.717Z,11.17
2023-02-27T12:45:45.291Z,12.76
2023-02-27T12:48:12.208Z,10.33
2023-02-27T12:50:53.341Z,11.55
2023-02-27T12:53:27.416Z,11.31
2023-02-27T12:56:12.685Z,10.35
2023-02-27T12:58:56.018Z,9.73
2023-02-27T13:01:37.850Z,9.97
2023-02-27T13:04:18.258Z,10.13
2023-02-27T13:06:50.242Z,11.13
2023-02-27T13:09:21.130Z,11.67
2023-02-27T13:12:03.241Z,11.04
2023-02-27T13:14:32.866Z,10.43
2023-02-27T13:17:02.521Z,10.88
2023-02-27T13:19:32.365Z,10.53
2023-02-27T13:22:17.986Z,10.08
2023-02-27T13:24:48.765Z,10.73
2023-02-27T13:27:28.927Z,12.43
2023-02-27T13:30:06.115Z,13.01
2023-02-27T13:32:44.325Z,11.33
2023-02-27T13:35:24.020Z,12.81
2023-02-27T13:37:54.410Z,11.62
2023-02-27T13:40:32.851Z,10.62
2023-02-27T13:43:02.140Z,10.70
2023-02-27T13:45:48.581Z,10.76
2023-02-27T13:48:42.385Z,10.64
2023-02-27T13:51:11.242Z,9.92
2023-02-27T13:53:39.367Z,10.83
2023-02-27T13:56:23.585Z,11.63
2023-02-27T13:58:50.905Z,11.11
2023-02-27T14:01:19.985Z,10.13
2023-02-27T14:03:58.700Z,10.22
2023-02-27T14:06:26.407Z,10.39
2023-02-27T14:09:08.789Z,10.09
2023-02-27T14:11:42.973Z,10.28
2023-02-27T14:14:30.181Z,10.17
2023-02-27T14:16:57.719Z,9.79
2023-02-27T14:19:25.824Z,9.49
2023-02-27T14:21:54.523Z,9.67
2023-02-27T14:24:24.473Z,9.73
2023-02-27T14:26:52.693Z,10.57
2023-02-27T14:29:31.287Z,10.46
2023-02-27T14:32:01.008Z,10.12
2023-02-27T14:34:28.285Z,9.61
2023-02-27T14:36:56.779Z,9.86
2023-02-27T14:39:26.432Z,9.58
2023-02-27T14:41:56.323Z,9.38
2023-02-27T14:44:28.576Z,10.29
2023-02-27T14:46:58.258Z,9.68
2023-02-27T14:49:35.924Z,9.82
2023-02-27T14:52:21.362Z,9.73
2023-02-27T14:54:49.624Z,10.23
2023-02-27T14:57:19.100Z,10.40
2023-02-27T14:59:48.447Z,9.91
2023-02-27T15:02:44.947Z,10.25
2023-02-27T15:05:16.248Z,10.00
2023-02-27T15:07:47.351Z,10.55
2023-02-27T15:10:26.492Z,9.75
2023-02-27T15:12:53.196Z,9.98
2023-02-27T15:15:21.912Z,10.34
2023-02-27T15:17:51.354Z,10.47
2023-02-27T15:20:26.931Z,10.56
2023-02-27T15:22:54.522Z,10.24
2023-02-27T15:25:34.763Z,9.90
2023-02-27T15:28:02.973Z,9.74
2023-02-27T15:30:29.901Z,10.02
2023-02-27T15:32:56.927Z,9.36
2023-02-27T15:35:24.987Z,9.36
2023-02-27T15:37:53.243Z,10.04
2023-02-27T15:40:27.827Z,10.02
2023-02-27T15:42:55.531Z,10.32
2023-02-27T15:45:24.922Z,11.08
2023-02-27T15:47:53.076Z,11.18
2023-02-27T15:50:19.940Z,11.36
2023-02-27T15:52:50.907Z,11.17
2023-02-27T15:55:22.526Z,10.03
2023-02-27T15:58:02.047Z,11.29
2023-02-27T16:00:31.032Z,10.33
2023-02-27T16:02:58.919Z,10.68
2023-02-27T16:05:29.335Z,11.29
2023-02-27T16:07:56.333Z,11.01
2023-02-27T16:10:28.878Z,11.04
2023-02-27T16:12:57.256Z,10.95
2023-02-27T16:15:30.306Z,10.72
2023-02-27T16:17:56.896Z,11.24
2023-02-27T16:20:37.765Z,10.95
2023-02-27T16:23:04.981Z,11.49
2023-02-27T16:25:32.830Z,11.88
2023-02-27T16:27:59.515Z,11.83
2023-02-27T16:30:25.979Z,12.26
2023-02-27T16:33:00.218Z,12.61
2023-02-27T16:35:27.577Z,12.31
2023-02-27T16:38:00.969Z,12.66
2023-02-27T16:40:29.104Z,12.55
2023-02-27T16:42:56.717Z,12.06
2023-02-27T16:45:25.392Z,11.95
2023-02-27T16:47:54.022Z,11.95
2023-02-27T16:50:30.253Z,12.16
2023-02-27T16:52:57.710Z,12.25
2023-02-27T16:55:25.815Z,12.14
2023-02-27T16:57:52.635Z,12.29
2023-02-27T17:00:19.671Z,11.95
2023-02-27T17:02:49.445Z,12.11
2023-02-27T17:05:16.963Z,12.10
2023-02-27T17:07:44.877Z,12.15
2023-02-27T17:10:15.655Z,12.23
2023-02-27T17:12:44.360Z,12.01
2023-02-27T17:15:12.360Z,12.20
2023-02-27T17:17:39.604Z,12.02
2023-02-27T17:20:10.335Z,12.04
2023-02-27T17:22:44.314Z,12.01
2023-02-27T17:25:12.569Z,12.12
2023-02-27T17:27:46.928Z,12.22
2023-02-27T17:30:14.960Z,12.04
2023-02-27T17:32:41.911Z,11.89
2023-02-27T17:35:09.447Z,12.06
2023-02-27T17:37:43.525Z,11.50
2023-02-27T17:40:12.377Z,11.76
2023-02-27T17:42:40.821Z,11.99
2023-02-27T17:45:08.103Z,12.00
2023-02-27T17:47:46.247Z,12.02
2023-02-27T17:50:13.460Z,11.83
2023-02-27T17:52:40.977Z,11.91
2023-02-27T17:55:10.222Z,11.75
2023-02-27T17:57:39.996Z,11.93
2023-02-27T18:00:09.075Z,12.09
2023-02-27T18:02:46.373Z,11.72
2023-02-27T18:05:13.227Z,11.36
2023-02-27T18:07:40.310Z,11.24
2023-02-27T18:10:09.127Z,11.43
2023-02-27T18:12:36.516Z,11.24
2023-02-27T18:15:04.394Z,11.14
2023-02-27T18:17:31.920Z,11.45
2023-02-27T18:19:59.776Z,11.30
2023-02-27T18:22:27.505Z,11.44
2023-02-27T18:24:55.794Z,11.11
2023-02-27T18:27:30.473Z,10.93
2023-02-27T18:30:06.898Z,11.05
2023-02-27T18:32:34.156Z,11.03
2023-02-27T18:35:06.069Z,10.83
2023-02-27T18:37:33.773Z,11.04
2023-02-27T18:40:01.798Z,10.80
2023-02-27T18:42:29.351Z,10.81
2023-02-27T18:44:56.439Z,11.25
2023-02-27T18:47:24.488Z,11.32
2023-02-27T18:49:52.482Z,11.44
2023-02-27T18:52:22.506Z,11.32
2023-02-27T18:54:50.694Z,11.39
2023-02-27T18:57:17.460Z,11.55
2023-02-27T18:59:48.199Z,11.05
2023-02-27T19:02:20.019Z,10.76
2023-02-27T19:04:51.415Z,11.36
2023-02-27T19:07:20.055Z,11.27
2023-02-27T19:09:47.870Z,11.32
2023-02-27T19:12:15.294Z,11.48
2023-02-27T19:14:42.416Z,11.53
2023-02-27T19:17:10.832Z,11.39
2023-02-27T19:19:39.136Z,11.64
2023-02-27T19:22:08.005Z,11.50
2023-02-27T19:24:38.884Z,11.69
2023-02-27T19:27:07.564Z,11.82
2023-02-27T19:29:35.011Z,11.84
2023-02-27T19:32:02.560Z,11.54
2023-02-27T19:34:30.924Z,11.26
2023-02-27T19:36:58.067Z,11.60
2023-02-27T19:39:26.922Z,10.97
2023-02-27T19:41:59.604Z,10.83
2023-02-27T19:44:27.101Z,10.99
2023-02-27T19:46:58.509Z,10.86
2023-02-27T19:49:26.184Z,11.20
2023-02-27T19:51:53.461Z,10.51
2023-02-27T19:54:39.672Z,10.14
2023-02-27T19:57:07.775Z,10.69
2023-02-27T19:59:37.093Z,10.85
2023-02-27T20:02:04.348Z,11.04
2023-02-27T20:04:32.859Z,11.13
2023-02-27T20:06:59.884Z,11.11
2023-02-27T20:09:28.130Z,11.27
2023-02-27T20:11:56.953Z,11.36
2023-02-27T20:14:24.066Z,10.92
2023-02-27T20:16:53.381Z,10.88
2023-02-27T20:19:21.082Z,11.25
2023-02-27T20:21:49.199Z,11.44
2023-02-27T20:24:18.426Z,11.29
2023-02-27T20:26:48.388Z,11.47
2023-02-27T20:29:17.329Z,11.60
2023-02-27T20:31:53.337Z,11.57
2023-02-27T20:34:24.991Z,11.42
2023-02-27T20:36:53.428Z,11.36
2023-02-27T20:39:20.757Z,11.44
2023-02-27T20:41:48.603Z,11.48
2023-02-27T20:44:16.845Z,11.41
2023-02-27T20:46:45.419Z,11.44
2023-02-27T20:49:22.407Z,11.45
2023-02-27T20:51:49.802Z,11.40
2023-02-27T20:54:23.894Z,11.24
2023-02-27T20:56:55.206Z,11.17
2023-02-27T20:59:23.804Z,11.30
2023-02-27T21:01:54.206Z,11.19
2023-02-27T21:04:23.018Z,11.07
2023-02-27T21:06:54.056Z,11.00
2023-02-27T21:09:21.184Z,11.16
2023-02-27T21:11:48.448Z,11.10
2023-02-27T21:14:24.590Z,11.29
2023-02-27T21:16:51.132Z,11.11
2023-02-27T21:19:18.238Z,10.51
2023-02-27T21:21:46.710Z,10.60
2023-02-27T21:24:16.313Z,10.98
2023-02-27T21:26:45.194Z,10.99
2023-02-27T21:29:14.612Z,10.91
2023-02-27T21:31:48.631Z,10.67
2023-02-27T21:34:18.446Z,10.71
2023-02-27T21:36:46.138Z,10.38
2023-02-27T21:39:17.609Z,10.18
2023-02-27T21:41:45.314Z,10.34
2023-02-27T21:44:20.287Z,10.26
2023-02-27T21:46:47.917Z,10.17
2023-02-27T21:49:28.097Z,10.21
2023-02-27T21:51:55.061Z,10.20
2023-02-27T21:54:21.752Z,10.45
2023-02-27T21:56:49.377Z,10.41
2023-02-27T21:59:16.608Z,10.16
2023-02-27T22:01:47.455Z,10.12
2023-02-27T22:04:15.357Z,10.13
2023-02-27T22:06:42.747Z,9.57
2023-02-27T22:09:09.582Z,9.32
2023-02-27T22:11:41.037Z,9.46
2023-02-27T22:14:08.551Z,9.41
2023-02-27T22:16:35.211Z,9.37
2023-02-27T22:19:12.807Z,9.63
2023-02-27T22:21:41.815Z,9.56
2023-02-27T22:24:13.761Z,9.62
2023-02-27T22:26:42.057Z,9.76
2023-02-27T22:29:17.254Z,9.59
2023-02-27T22:31:44.508Z,9.89
2023-02-27T22:34:15.835Z,9.69
2023-02-27T22:36:42.599Z,9.44
2023-02-27T22:39:11.259Z,9.50
2023-02-27T22:41:39.825Z,9.65
2023-02-27T22:44:08.755Z,9.53
2023-02-27T22:46:37.339Z,9.68
2023-02-27T22:49:16.637Z,9.75
2023-02-27T22:51:44.536Z,9.85
2023-02-27T22:54:13.576Z,9.92
2023-02-27T22:56:42.708Z,9.78
2023-02-27T22:59:10.027Z,10.17
2023-02-27T23:01:58.733Z,10.18
2023-02-27T23:04:26.470Z,9.47
2023-02-27T23:06:55.373Z,9.71
2023-02-27T23:09:25.624Z,9.80
2023-02-27T23:11:52.886Z,9.87
2023-02-27T23:14:22.298Z,9.62
2023-02-27T23:16:49.624Z,9.67
2023-02-27T23:19:18.084Z,9.98
2023-02-27T23:21:46.852Z,10.18
2023-02-27T23:24:15.296Z,9.86
2023-02-27T23:26:44.377Z,9.84
2023-02-27T23:29:34.512Z,9.71
2023-02-27T23:32:02.055Z,9.58
2023-02-27T23:34:43.844Z,9.77
2023-02-27T23:37:16.314Z,9.95
2023-02-27T23:39:45.024Z,9.57
2023-02-27T23:42:30.580Z,9.90
2023-02-27T23:45:16.141Z,10.11
2023-02-27T23:47:44.208Z,9.98
2023-02-27T23:50:12.600Z,9.68
2023-02-27T23:52:39.905Z,9.84
2023-02-27T23:55:25.910Z,9.93
2023-02-27T23:57:54.869Z,9.68
